Tison, Georgia
Current Conditions -  °F | °C
As of 1:15 PM on Thursday 18 Dec 2014 (Local Time) from KCWV Reporting Station
Clear Clear  
Wind Chill: 59°   Ceiling: Unl
Heat Index: 59°   Visibility: 10mi
Dew Point: 41°   Wind: 5mph
Humidity: 51%   Direction: 280°W
Pressure: 30.11"   Gusts: NA
Location:  31.9485°N, 81.9795°W
Report Text: KCWV 181815Z AUTO 28004KT 10SM CLR 15/05 A3011 RMK AO2
Loading
Personal Weather Stations






























Interactive Weather Map New forecast layout! Learn more

10-Day Weather Forecast

Advertisements
Track Severe Weather on mobile